createdAt,value
2022-12-22T00:02:39.939Z,1.25
2022-12-22T00:05:37.660Z,0.56
2022-12-22T00:08:24.123Z,0.40
2022-12-22T00:11:10.903Z,0.66
2022-12-22T00:13:56.806Z,0.67
2022-12-22T00:16:49.501Z,1.25
2022-12-22T00:19:35.839Z,1.36
2022-12-22T00:22:43.387Z,1.51
2022-12-22T00:25:35.713Z,1.36
2022-12-22T00:28:28.898Z,1.72
2022-12-22T00:31:14.542Z,1.68
2022-12-22T00:33:59.887Z,1.44
2022-12-22T00:36:45.561Z,1.40
2022-12-22T00:39:31.994Z,1.55
2022-12-22T00:42:17.501Z,1.17
2022-12-22T00:45:02.531Z,1.06
2022-12-22T00:47:49.962Z,1.01
2022-12-22T00:50:35.472Z,0.70
2022-12-22T00:53:22.198Z,1.16
2022-12-22T00:56:07.398Z,1.11
2022-12-22T00:58:53.608Z,1.02
2022-12-22T01:01:38.996Z,0.64
2022-12-22T01:04:24.384Z,1.14
2022-12-22T01:07:10.206Z,1.41
2022-12-22T01:09:56.034Z,1.05
2022-12-22T01:12:45.380Z,0.54
2022-12-22T01:15:37.867Z,1.04
2022-12-22T01:18:24.079Z,1.33
2022-12-22T01:21:10.101Z,1.26
2022-12-22T01:23:56.252Z,0.66
2022-12-22T01:26:41.710Z,0.52
2022-12-22T01:29:27.292Z,0.76
2022-12-22T01:32:12.868Z,1.31
2022-12-22T01:34:58.688Z,0.91
2022-12-22T01:37:44.049Z,0.96
2022-12-22T01:40:41.887Z,1.06
2022-12-22T01:43:46.161Z,1.65
2022-12-22T01:46:40.277Z,1.70
2022-12-22T01:49:33.898Z,1.57
2022-12-22T01:52:20.192Z,1.13
2022-12-22T01:55:06.708Z,0.56
2022-12-22T01:57:52.668Z,0.76
2022-12-22T02:00:38.151Z,1.27
2022-12-22T02:03:34.406Z,1.32
2022-12-22T02:06:59.565Z,0.76
2022-12-22T02:09:54.641Z,0.18
2022-12-22T02:12:54.642Z,0.31
2022-12-22T02:15:43.022Z,0.40
2022-12-22T02:18:38.684Z,0.86
2022-12-22T02:21:29.675Z,1.00
2022-12-22T02:24:42.952Z,0.99
2022-12-22T02:27:30.087Z,0.75
2022-12-22T02:30:21.637Z,0.00
2022-12-22T02:33:09.861Z,0.65
2022-12-22T02:36:05.782Z,0.94
2022-12-22T02:39:19.674Z,-0.11
2022-12-22T02:42:13.870Z,0.87
2022-12-22T02:45:55.019Z,0.81
2022-12-22T02:49:35.823Z,0.22
2022-12-22T02:52:34.594Z,0.42
2022-12-22T02:55:21.242Z,0.90
2022-12-22T02:58:10.193Z,1.11
2022-12-22T03:00:57.768Z,1.25
2022-12-22T03:03:43.165Z,1.08
2022-12-22T03:06:28.749Z,1.06
2022-12-22T03:09:14.047Z,0.21
2022-12-22T03:11:59.785Z,0.35
2022-12-22T03:14:44.929Z,-0.16
2022-12-22T03:17:30.268Z,0.12
2022-12-22T03:20:15.463Z,-0.03
2022-12-22T03:23:00.814Z,0.12
2022-12-22T03:25:45.937Z,0.08
2022-12-22T03:28:12.629Z,0.27
2022-12-22T03:30:39.607Z,0.58
2022-12-22T03:33:06.634Z,0.79
2022-12-22T03:35:33.387Z,0.99
2022-12-22T03:38:03.570Z,0.87
2022-12-22T03:40:31.546Z,0.88
2022-12-22T03:43:16.685Z,0.65
2022-12-22T03:46:01.961Z,0.55
2022-12-22T03:48:28.638Z,0.45
2022-12-22T03:50:55.481Z,0.09
2022-12-22T03:53:22.227Z,-0.16
2022-12-22T03:55:49.029Z,-0.04
2022-12-22T03:58:15.868Z,0.28
2022-12-22T04:00:42.768Z,0.17
2022-12-22T04:03:09.712Z,-0.15
2022-12-22T04:05:37.536Z,0.15
2022-12-22T04:08:04.575Z,0.49
2022-12-22T04:10:50.969Z,0.70
2022-12-22T04:13:17.761Z,0.82
2022-12-22T04:15:44.602Z,0.77
2022-12-22T04:18:11.582Z,0.77
2022-12-22T04:20:38.366Z,0.37
2022-12-22T04:23:05.092Z,0.47
2022-12-22T04:25:31.996Z,0.54
2022-12-22T04:27:58.815Z,0.38
2022-12-22T04:30:25.589Z,0.10
2022-12-22T04:32:52.431Z,0.08
2022-12-22T04:35:19.383Z,-0.47
2022-12-22T04:37:46.017Z,-0.15
2022-12-22T04:40:13.554Z,-0.44
2022-12-22T04:42:40.526Z,0.10
2022-12-22T04:45:07.973Z,0.47
2022-12-22T04:47:35.013Z,0.48
2022-12-22T04:50:02.069Z,0.46
2022-12-22T04:52:28.917Z,0.60
2022-12-22T04:54:55.659Z,0.67
2022-12-22T04:57:22.609Z,0.55
2022-12-22T04:59:49.484Z,0.20
2022-12-22T05:02:16.333Z,-0.19
2022-12-22T05:04:43.148Z,0.38
2022-12-22T05:07:10.121Z,0.55
2022-12-22T05:09:36.838Z,0.42
2022-12-22T05:12:23.804Z,0.57
2022-12-22T05:14:50.529Z,0.55
2022-12-22T05:17:17.487Z,0.60
2022-12-22T05:19:44.300Z,0.49
2022-12-22T05:22:11.370Z,0.63
2022-12-22T05:24:38.178Z,0.64
2022-12-22T05:27:06.464Z,0.59
2022-12-22T05:29:33.318Z,0.54
2022-12-22T05:32:00.326Z,0.55
2022-12-22T05:34:27.460Z,0.85
2022-12-22T05:36:54.287Z,0.78
2022-12-22T05:39:21.072Z,0.69
2022-12-22T05:41:47.870Z,0.58
2022-12-22T05:44:14.969Z,0.72
2022-12-22T05:46:41.707Z,0.60
2022-12-22T05:49:08.667Z,0.66
2022-12-22T05:51:35.642Z,0.71
2022-12-22T05:54:02.425Z,0.72
2022-12-22T05:56:29.250Z,0.64
2022-12-22T05:58:56.070Z,0.70
2022-12-22T06:01:22.748Z,0.94
2022-12-22T06:03:53.270Z,1.07
2022-12-22T06:06:23.959Z,0.88
2022-12-22T06:08:50.742Z,0.74
2022-12-22T06:11:18.373Z,0.86
2022-12-22T06:13:46.320Z,0.86
2022-12-22T06:16:13.122Z,0.84
2022-12-22T06:18:40.016Z,0.81
2022-12-22T06:21:06.701Z,0.88
2022-12-22T06:23:33.447Z,0.85
2022-12-22T06:26:02.279Z,0.91
2022-12-22T06:28:29.760Z,0.78
2022-12-22T06:30:56.683Z,0.82
2022-12-22T06:33:23.618Z,0.91
2022-12-22T06:35:57.579Z,1.00
2022-12-22T06:38:25.828Z,0.89
2022-12-22T06:40:52.619Z,1.06
2022-12-22T06:43:19.328Z,1.18
2022-12-22T06:45:46.104Z,1.32
2022-12-22T06:48:13.410Z,1.40
2022-12-22T06:50:40.632Z,1.54
2022-12-22T06:53:08.123Z,1.60
2022-12-22T06:55:35.617Z,1.62
2022-12-22T06:58:02.991Z,1.82
2022-12-22T07:00:30.052Z,1.98
2022-12-22T07:02:56.974Z,2.08
2022-12-22T07:05:24.548Z,2.18
2022-12-22T07:07:52.439Z,2.21
2022-12-22T07:10:39.602Z,2.20
2022-12-22T07:13:19.457Z,2.49
2022-12-22T07:15:53.761Z,2.31
2022-12-22T07:18:25.155Z,2.44
2022-12-22T07:20:52.020Z,2.42
2022-12-22T07:23:18.862Z,2.53
2022-12-22T07:25:45.713Z,2.46
2022-12-22T07:28:18.368Z,2.50
2022-12-22T07:30:47.414Z,2.58
2022-12-22T07:33:14.156Z,2.65
2022-12-22T07:35:40.999Z,2.76
2022-12-22T07:38:08.012Z,2.83
2022-12-22T07:40:41.155Z,2.79
2022-12-22T07:43:08.869Z,2.85
2022-12-22T07:45:36.428Z,2.90
2022-12-22T07:48:28.036Z,2.99
2022-12-22T07:51:02.351Z,3.12
2022-12-22T07:53:29.232Z,3.19
2022-12-22T07:55:55.982Z,3.26
2022-12-22T07:58:22.635Z,3.46
2022-12-22T08:00:49.396Z,3.59
2022-12-22T08:03:16.401Z,3.81
2022-12-22T08:05:43.247Z,3.90
2022-12-22T08:08:09.985Z,4.04
2022-12-22T08:10:36.913Z,4.29
2022-12-22T08:13:03.771Z,4.18
2022-12-22T08:15:30.651Z,4.25
2022-12-22T08:17:57.625Z,4.38
2022-12-22T08:20:24.472Z,4.40
2022-12-22T08:22:51.147Z,4.77
2022-12-22T08:25:18.428Z,4.90
2022-12-22T08:27:50.130Z,5.07
2022-12-22T08:30:17.033Z,5.02
2022-12-22T08:32:48.299Z,5.34
2022-12-22T08:35:15.245Z,5.53
2022-12-22T08:37:45.285Z,5.58
2022-12-22T08:40:16.377Z,6.09
2022-12-22T08:42:43.606Z,6.45
2022-12-22T08:45:11.473Z,6.94
2022-12-22T08:47:38.363Z,7.17
2022-12-22T08:50:06.264Z,7.69
2022-12-22T08:52:33.059Z,7.59
2022-12-22T08:54:59.749Z,7.73
2022-12-22T08:57:26.510Z,7.72
2022-12-22T08:59:53.271Z,7.43
2022-12-22T09:02:20.093Z,7.57
2022-12-22T09:04:46.963Z,7.49
2022-12-22T09:07:13.742Z,7.61
2022-12-22T09:09:40.753Z,7.92
2022-12-22T09:12:07.889Z,7.92
2022-12-22T09:14:34.638Z,7.96
2022-12-22T09:17:01.439Z,7.89
2022-12-22T09:19:28.310Z,8.03
2022-12-22T09:21:55.798Z,8.33
2022-12-22T09:24:22.640Z,8.70
2022-12-22T09:26:49.647Z,8.92
2022-12-22T09:29:17.063Z,8.63
2022-12-22T09:31:44.179Z,8.97
2022-12-22T09:34:17.063Z,9.34
2022-12-22T09:36:45.131Z,9.25
2022-12-22T09:39:11.950Z,9.08
2022-12-22T09:41:51.622Z,9.14
2022-12-22T09:44:23.746Z,9.43
2022-12-22T09:46:52.479Z,9.44
2022-12-22T09:49:20.768Z,9.49
2022-12-22T09:51:51.807Z,9.45
2022-12-22T09:54:19.641Z,9.51
2022-12-22T09:56:46.382Z,9.95
2022-12-22T09:59:16.082Z,9.90
2022-12-22T10:01:58.227Z,10.03
2022-12-22T10:05:00.572Z,10.15
2022-12-22T10:07:32.381Z,9.77
2022-12-22T10:10:24.830Z,9.91
2022-12-22T10:12:59.453Z,9.72
2022-12-22T10:15:27.925Z,9.91
2022-12-22T10:18:10.502Z,10.03
2022-12-22T10:20:39.876Z,9.52
2022-12-22T10:23:15.368Z,9.54
2022-12-22T10:28:48.121Z,9.78
2022-12-22T10:31:21.830Z,9.72
2022-12-22T10:33:52.856Z,9.95
2022-12-22T10:36:25.137Z,10.16
2022-12-22T10:39:05.464Z,10.05
2022-12-22T10:41:36.537Z,9.72
2022-12-22T10:44:19.336Z,9.90
2022-12-22T10:46:51.984Z,9.82
2022-12-22T10:49:30.804Z,9.69
2022-12-22T10:52:18.398Z,9.87
2022-12-22T10:54:47.732Z,10.03
2022-12-22T10:57:14.582Z,10.16
2022-12-22T10:59:49.948Z,10.23
2022-12-22T11:02:34.559Z,9.93
2022-12-22T11:05:07.715Z,10.26
2022-12-22T11:07:40.122Z,10.10
2022-12-22T11:10:28.780Z,10.04
2022-12-22T11:12:55.568Z,10.00
2022-12-22T11:15:28.890Z,10.16
2022-12-22T11:18:22.900Z,10.28
2022-12-22T11:21:01.281Z,10.62
2022-12-22T11:23:44.470Z,10.09
2022-12-22T11:26:31.330Z,10.06
2022-12-22T11:29:17.526Z,10.40
2022-12-22T11:31:47.063Z,10.74
2022-12-22T11:34:23.232Z,10.71
2022-12-22T11:37:28.904Z,10.62
2022-12-22T11:40:15.677Z,10.82
2022-12-22T11:43:09.226Z,10.69
2022-12-22T11:45:51.532Z,10.60
2022-12-22T11:48:36.729Z,10.74
2022-12-22T11:51:14.880Z,11.28
2022-12-22T11:54:13.273Z,12.30
2022-12-22T11:56:45.100Z,13.07
2022-12-22T11:59:29.716Z,13.64
2022-12-22T12:02:02.543Z,13.96
2022-12-22T12:04:59.203Z,14.21
2022-12-22T12:07:28.072Z,14.69
2022-12-22T12:10:24.782Z,15.49
2022-12-22T12:13:10.503Z,16.20
2022-12-22T12:15:45.158Z,17.03
2022-12-22T12:18:31.601Z,16.83
2022-12-22T12:21:27.776Z,17.15
2022-12-22T12:24:13.263Z,16.16
2022-12-22T12:27:17.025Z,16.37
2022-12-22T12:30:35.634Z,15.39
2022-12-22T12:33:03.893Z,16.41
2022-12-22T12:35:53.815Z,17.12
2022-12-22T12:39:06.738Z,16.42
2022-12-22T12:41:29.480Z,16.64
2022-12-22T12:43:58.172Z,17.61
2022-12-22T12:46:54.842Z,18.66
2022-12-22T12:50:00.544Z,18.54
2022-12-22T12:52:39.870Z,18.06
2022-12-22T12:55:32.859Z,17.47
2022-12-22T12:58:03.451Z,16.11
2022-12-22T13:00:33.339Z,17.11
2022-12-22T13:03:19.915Z,16.90
2022-12-22T13:06:00.724Z,17.03
2022-12-22T13:08:31.361Z,16.66
2022-12-22T13:10:58.096Z,16.40
2022-12-22T13:13:24.841Z,16.04
2022-12-22T13:16:00.828Z,15.72
2022-12-22T13:18:30.824Z,15.40
2022-12-22T13:21:18.656Z,15.04
2022-12-22T13:24:24.287Z,14.41
2022-12-22T13:26:55.321Z,13.44
2022-12-22T13:29:22.172Z,13.12
2022-12-22T13:32:27.606Z,12.63
2022-12-22T13:35:31.516Z,12.42
2022-12-22T13:37:59.206Z,11.91
2022-12-22T13:40:32.033Z,11.84
2022-12-22T13:43:20.598Z,11.15
2022-12-22T13:45:53.241Z,10.85
2022-12-22T13:48:30.473Z,11.16
2022-12-22T13:51:03.528Z,11.11
2022-12-22T13:54:07.179Z,11.09
2022-12-22T13:56:38.264Z,11.11
2022-12-22T13:59:15.062Z,11.08
2022-12-22T14:01:56.400Z,11.11
2022-12-22T14:04:23.728Z,11.06
2022-12-22T14:06:50.494Z,10.82
2022-12-22T14:09:27.746Z,11.06
2022-12-22T14:12:00.770Z,11.07
2022-12-22T14:14:36.798Z,10.81
2022-12-22T14:17:05.257Z,10.70
2022-12-22T14:19:36.163Z,10.89
2022-12-22T14:22:14.171Z,10.65
2022-12-22T14:24:54.635Z,10.53
2022-12-22T14:27:46.855Z,10.53
2022-12-22T14:30:21.989Z,10.26
2022-12-22T14:32:55.221Z,10.51
2022-12-22T14:35:22.694Z,10.45
2022-12-22T14:38:02.822Z,10.41
2022-12-22T14:40:43.409Z,10.47
2022-12-22T14:43:18.993Z,10.43
2022-12-22T14:45:48.133Z,10.17
2022-12-22T14:48:45.544Z,10.19
2022-12-22T14:51:19.856Z,10.07
2022-12-22T14:53:56.773Z,9.76
2022-12-22T14:56:25.349Z,9.82
2022-12-22T14:59:07.112Z,9.89
2022-12-22T15:01:33.988Z,9.92
2022-12-22T15:04:20.609Z,9.77
2022-12-22T15:06:48.575Z,9.70
2022-12-22T15:09:15.317Z,9.57
2022-12-22T15:12:05.265Z,9.68
2022-12-22T15:14:38.881Z,9.68
2022-12-22T15:17:12.734Z,9.49
2022-12-22T15:19:39.746Z,9.59
2022-12-22T15:22:07.996Z,9.50
2022-12-22T15:24:34.716Z,9.50
2022-12-22T15:27:01.433Z,9.36
2022-12-22T15:29:28.356Z,9.40
2022-12-22T15:31:55.060Z,9.36
2022-12-22T15:34:25.816Z,9.16
2022-12-22T15:36:52.704Z,9.27
2022-12-22T15:39:21.374Z,9.14
2022-12-22T15:41:48.412Z,9.07
2022-12-22T15:44:15.447Z,8.94
2022-12-22T15:46:44.905Z,8.93
2022-12-22T15:49:19.799Z,8.92
2022-12-22T15:51:52.227Z,8.83
2022-12-22T15:54:19.257Z,8.80
2022-12-22T15:56:47.282Z,8.68
2022-12-22T15:59:21.240Z,8.32
2022-12-22T16:01:48.116Z,8.29
2022-12-22T16:04:15.155Z,7.84
2022-12-22T16:06:41.911Z,8.09
2022-12-22T16:09:18.391Z,8.33
2022-12-22T16:11:45.351Z,8.20
2022-12-22T16:14:13.526Z,8.04
2022-12-22T16:16:41.702Z,7.99
2022-12-22T16:19:14.350Z,8.10
2022-12-22T16:21:42.515Z,6.62
2022-12-22T16:24:22.476Z,6.05
2022-12-22T16:26:49.344Z,5.96
2022-12-22T16:29:17.102Z,5.64
2022-12-22T16:31:44.065Z,5.67
2022-12-22T16:34:13.642Z,5.97
2022-12-22T16:36:40.307Z,5.66
2022-12-22T16:39:10.101Z,6.22
2022-12-22T16:41:37.092Z,6.64
2022-12-22T16:46:53.544Z,6.89
2022-12-22T16:49:26.358Z,6.80
2022-12-22T16:51:54.660Z,6.62
2022-12-22T16:54:21.513Z,6.99
2022-12-22T16:56:51.245Z,6.55
2022-12-22T16:59:18.403Z,5.98
2022-12-22T17:01:51.721Z,6.49
2022-12-22T17:04:29.909Z,5.71
2022-12-22T17:06:59.794Z,6.07
2022-12-22T17:09:32.415Z,6.19
2022-12-22T17:12:01.250Z,6.20
2022-12-22T17:14:33.098Z,5.92
2022-12-22T17:17:00.117Z,5.66
2022-12-22T17:19:27.097Z,5.82
2022-12-22T17:21:55.826Z,5.74
2022-12-22T17:24:28.080Z,6.09
2022-12-22T17:27:06.204Z,6.28
2022-12-22T17:29:35.192Z,6.36
2022-12-22T17:32:02.142Z,6.47
2022-12-22T17:34:28.974Z,6.48
2022-12-22T17:36:58.802Z,6.51
2022-12-22T17:39:25.979Z,6.25
2022-12-22T17:41:56.971Z,6.30
2022-12-22T17:44:26.431Z,5.77
2022-12-22T17:46:53.668Z,6.16
2022-12-22T17:49:22.692Z,5.81
2022-12-22T17:51:50.543Z,5.33
2022-12-22T17:54:23.811Z,5.21
2022-12-22T17:56:52.246Z,5.90
2022-12-22T17:59:19.080Z,5.78
2022-12-22T18:01:46.021Z,6.01
2022-12-22T18:04:13.594Z,5.66
2022-12-22T18:06:42.581Z,5.96
2022-12-22T18:09:19.835Z,5.99
2022-12-22T18:11:46.803Z,5.49
2022-12-22T18:14:14.442Z,5.18
2022-12-22T18:16:42.535Z,5.39
2022-12-22T18:19:09.780Z,4.96
2022-12-22T18:21:36.814Z,5.29
2022-12-22T18:24:04.300Z,5.49
2022-12-22T18:26:31.259Z,5.18
2022-12-22T18:28:58.294Z,5.00
2022-12-22T18:31:25.917Z,5.47
2022-12-22T18:33:53.258Z,5.47
2022-12-22T18:36:27.561Z,5.69
2022-12-22T18:38:55.090Z,5.68
2022-12-22T18:41:24.551Z,5.51
2022-12-22T18:43:51.786Z,5.18
2022-12-22T18:46:19.802Z,5.66
2022-12-22T18:48:47.661Z,5.51
2022-12-22T18:51:25.428Z,5.56
2022-12-22T18:53:54.535Z,5.33
2022-12-22T18:56:22.041Z,5.36
2022-12-22T18:58:48.867Z,4.86
2022-12-22T19:01:24.867Z,5.36
2022-12-22T19:03:55.264Z,5.33
2022-12-22T19:06:23.074Z,4.59
2022-12-22T19:08:51.443Z,3.64
2022-12-22T19:11:25.065Z,3.98
2022-12-22T19:13:52.577Z,4.57
2022-12-22T19:16:26.604Z,4.90
2022-12-22T19:18:53.731Z,5.02
2022-12-22T19:21:21.577Z,5.37
2022-12-22T19:23:48.489Z,5.31
2022-12-22T19:26:26.931Z,5.32
2022-12-22T19:29:01.234Z,5.34
2022-12-22T19:31:33.636Z,5.45
2022-12-22T19:34:06.505Z,5.46
2022-12-22T19:36:34.435Z,5.12
2022-12-22T19:39:05.057Z,5.24
2022-12-22T19:41:54.245Z,5.15
2022-12-22T19:44:26.789Z,4.98
2022-12-22T19:46:56.158Z,5.15
2022-12-22T19:49:25.095Z,4.93
2022-12-22T19:51:51.902Z,4.98
2022-12-22T19:54:20.019Z,5.07
2022-12-22T19:56:50.994Z,4.46
2022-12-22T19:59:39.586Z,4.47
2022-12-22T20:02:22.062Z,4.71
2022-12-22T20:04:50.127Z,4.28
2022-12-22T20:07:19.948Z,4.59
2022-12-22T20:09:47.068Z,4.81
2022-12-22T20:12:35.431Z,5.05
2022-12-22T20:15:13.571Z,3.98
2022-12-22T20:17:40.484Z,4.08
2022-12-22T20:20:13.273Z,4.63
2022-12-22T20:22:46.746Z,4.51
2022-12-22T20:25:23.177Z,4.29
2022-12-22T20:27:51.698Z,4.49
2022-12-22T20:30:23.166Z,4.59
2022-12-22T20:32:50.213Z,4.37
2022-12-22T20:35:18.881Z,3.39
2022-12-22T20:37:45.637Z,3.46
2022-12-22T20:40:30.906Z,4.10
2022-12-22T20:42:58.336Z,4.33
2022-12-22T20:45:29.636Z,4.36
2022-12-22T20:47:58.826Z,4.40
2022-12-22T20:50:28.961Z,4.39
2022-12-22T20:52:56.705Z,4.53
2022-12-22T20:55:26.678Z,4.63
2022-12-22T20:57:54.075Z,4.66
2022-12-22T21:00:29.138Z,4.69
2022-12-22T21:02:56.074Z,4.61
2022-12-22T21:05:23.367Z,4.65
2022-12-22T21:07:50.470Z,4.74
2022-12-22T21:10:28.265Z,4.62
2022-12-22T21:12:55.073Z,4.60
2022-12-22T21:15:28.241Z,4.25
2022-12-22T21:17:58.406Z,4.12
2022-12-22T21:20:29.248Z,3.83
2022-12-22T21:22:56.184Z,4.06
2022-12-22T21:25:23.987Z,4.13
2022-12-22T21:27:52.216Z,4.16
2022-12-22T21:30:22.418Z,4.27
2022-12-22T21:32:50.232Z,4.27
2022-12-22T21:35:21.393Z,4.52
2022-12-22T21:37:50.693Z,4.62
2022-12-22T21:40:23.123Z,4.47
2022-12-22T21:42:51.213Z,4.45
2022-12-22T21:45:21.493Z,4.60
2022-12-22T21:47:49.207Z,4.46
2022-12-22T21:50:24.884Z,4.57
2022-12-22T21:52:52.585Z,4.54
2022-12-22T21:55:31.651Z,4.63
2022-12-22T21:57:59.377Z,4.55
2022-12-22T22:00:28.584Z,4.62
2022-12-22T22:02:56.839Z,4.59
2022-12-22T22:05:29.201Z,4.54
2022-12-22T22:07:57.791Z,4.52
2022-12-22T22:10:27.911Z,4.45
2022-12-22T22:12:54.974Z,4.41
2022-12-22T22:15:23.743Z,4.34
2022-12-22T22:17:50.518Z,4.44
2022-12-22T22:20:20.398Z,4.42
2022-12-22T22:22:48.326Z,4.56
2022-12-22T22:25:16.646Z,4.65
2022-12-22T22:27:47.702Z,4.61
2022-12-22T22:30:21.472Z,4.54
2022-12-22T22:32:49.267Z,4.54
2022-12-22T22:35:18.498Z,4.50
2022-12-22T22:37:46.190Z,4.56
2022-12-22T22:40:15.421Z,4.41
2022-12-22T22:42:42.320Z,4.47
2022-12-22T22:45:13.038Z,4.52
2022-12-22T22:47:40.378Z,4.52
2022-12-22T22:50:08.907Z,4.52
2022-12-22T22:52:37.151Z,4.46
2022-12-22T22:55:04.229Z,4.39
2022-12-22T22:57:31.090Z,4.53
2022-12-22T22:59:57.814Z,4.57
2022-12-22T23:02:24.808Z,4.57
2022-12-22T23:04:51.689Z,4.55
2022-12-22T23:07:18.429Z,4.49
2022-12-22T23:09:45.288Z,4.41
2022-12-22T23:12:12.076Z,4.34
2022-12-22T23:14:39.352Z,4.35
2022-12-22T23:17:06.221Z,4.38
2022-12-22T23:19:33.222Z,4.50
2022-12-22T23:21:59.917Z,4.44
2022-12-22T23:24:27.025Z,4.38
2022-12-22T23:26:53.769Z,4.46
2022-12-22T23:29:20.718Z,4.16
2022-12-22T23:31:47.569Z,4.33
2022-12-22T23:34:14.563Z,4.29
2022-12-22T23:36:41.375Z,4.34
2022-12-22T23:39:08.635Z,4.42
2022-12-22T23:41:35.858Z,4.49
2022-12-22T23:44:02.665Z,4.49
2022-12-22T23:46:29.612Z,4.56
2022-12-22T23:48:58.436Z,4.59
2022-12-22T23:51:27.699Z,4.47
2022-12-22T23:54:00.240Z,4.57
2022-12-22T23:56:28.299Z,4.46
2022-12-22T23:58:55.447Z,4.19
